createdAt,value
2022-08-19T00:00:20.061Z,19.60
2022-08-19T00:03:11.818Z,17.70
2022-08-19T00:05:47.884Z,18.30
2022-08-19T00:08:24.019Z,21.00
2022-08-19T00:11:00.057Z,22.50
2022-08-19T00:13:36.144Z,18.50
2022-08-19T00:16:12.699Z,23.00
2022-08-19T00:18:48.681Z,22.00
2022-08-19T00:21:25.005Z,23.60
2022-08-19T00:24:02.334Z,21.80
2022-08-19T00:26:39.106Z,20.80
2022-08-19T00:29:20.102Z,23.20
2022-08-19T00:32:03.207Z,21.50
2022-08-19T00:34:45.386Z,19.30
2022-08-19T00:37:28.906Z,18.70
2022-08-19T00:40:10.508Z,18.30
2022-08-19T00:42:47.187Z,18.40
2022-08-19T00:45:36.582Z,21.10
2022-08-19T00:48:15.109Z,19.70
2022-08-19T00:50:56.648Z,23.20
2022-08-19T00:53:36.157Z,21.00
2022-08-19T00:56:12.708Z,21.80
2022-08-19T00:58:49.066Z,20.80
2022-08-19T01:01:25.216Z,18.90
2022-08-19T01:04:01.427Z,21.80
2022-08-19T01:06:40.543Z,18.90
2022-08-19T01:09:16.962Z,21.50
2022-08-19T01:11:53.837Z,21.80
2022-08-19T01:14:31.093Z,17.70
2022-08-19T01:17:08.435Z,20.60
2022-08-19T01:19:48.417Z,19.20
2022-08-19T01:22:37.159Z,20.90
2022-08-19T01:25:15.022Z,20.80
2022-08-19T01:27:53.869Z,20.70
2022-08-19T01:30:37.366Z,22.10
2022-08-19T01:33:13.727Z,20.90
2022-08-19T01:35:51.407Z,20.10
2022-08-19T01:38:32.854Z,18.90
2022-08-19T01:41:11.504Z,20.00
2022-08-19T01:44:13.233Z,18.40
2022-08-19T01:46:45.807Z,20.20
2022-08-19T01:49:26.282Z,19.50
2022-08-19T01:52:03.232Z,17.60
2022-08-19T01:54:39.832Z,19.90
2022-08-19T01:57:17.989Z,20.60
2022-08-19T01:59:54.486Z,19.90
2022-08-19T02:02:30.567Z,22.60
2022-08-19T02:05:10.677Z,23.80
2022-08-19T02:07:47.719Z,20.70
2022-08-19T02:10:26.455Z,18.50
2022-08-19T02:13:02.596Z,24.10
2022-08-19T02:15:38.727Z,24.20
2022-08-19T02:18:15.457Z,22.00
2022-08-19T02:20:52.083Z,19.00
2022-08-19T02:23:28.045Z,22.60
2022-08-19T02:26:04.551Z,21.80
2022-08-19T02:28:41.084Z,19.90
2022-08-19T02:31:25.669Z,20.80
2022-08-19T02:34:02.525Z,20.00
2022-08-19T02:36:42.515Z,21.50
2022-08-19T02:39:18.930Z,24.30
2022-08-19T02:41:54.840Z,22.00
2022-08-19T02:44:31.994Z,23.50
2022-08-19T02:47:09.590Z,23.30
2022-08-19T02:49:45.745Z,21.10
2022-08-19T02:52:24.478Z,20.20
2022-08-19T02:55:01.247Z,24.00
2022-08-19T02:57:38.060Z,21.10
2022-08-19T03:00:17.215Z,23.30
2022-08-19T03:02:53.417Z,22.50
2022-08-19T03:05:46.913Z,21.30
2022-08-19T03:08:26.942Z,22.50
2022-08-19T03:11:02.915Z,19.50
2022-08-19T03:13:38.962Z,20.00
2022-08-19T03:16:16.065Z,25.60
2022-08-19T03:18:53.133Z,26.60
2022-08-19T03:21:36.531Z,22.20
2022-08-19T03:24:15.193Z,22.10
2022-08-19T03:26:58.644Z,23.60
2022-08-19T03:29:43.962Z,21.20
2022-08-19T03:32:32.280Z,21.00
2022-08-19T03:35:10.887Z,20.00
2022-08-19T03:37:46.728Z,22.10
2022-08-19T03:40:23.524Z,22.40
2022-08-19T03:42:59.809Z,24.00
2022-08-19T03:45:36.247Z,24.90
2022-08-19T03:48:12.487Z,25.20
2022-08-19T03:50:48.793Z,24.30
2022-08-19T03:53:24.680Z,21.20
2022-08-19T03:56:02.188Z,22.60
2022-08-19T03:58:38.815Z,26.70
2022-08-19T04:01:20.844Z,25.10
2022-08-19T04:04:11.451Z,24.20
2022-08-19T04:06:48.946Z,24.80
2022-08-19T04:09:25.693Z,19.70
2022-08-19T04:12:02.588Z,20.40
2022-08-19T04:14:40.503Z,23.50
2022-08-19T04:17:16.621Z,20.70
2022-08-19T04:19:52.535Z,20.90
2022-08-19T04:22:28.593Z,21.40
2022-08-19T04:25:06.100Z,18.40
2022-08-19T04:27:47.543Z,21.10
2022-08-19T04:33:00.003Z,19.20
2022-08-19T04:35:41.799Z,20.10
2022-08-19T04:38:21.065Z,18.60
2022-08-19T04:41:11.506Z,18.00
2022-08-19T04:43:51.508Z,14.80
2022-08-19T04:46:40.405Z,18.70
2022-08-19T04:49:28.455Z,16.80
2022-08-19T04:52:05.103Z,17.00
2022-08-19T04:54:41.245Z,16.90
2022-08-19T04:57:17.302Z,16.60
2022-08-19T04:59:58.226Z,14.70
2022-08-19T05:02:34.333Z,15.30
2022-08-19T05:05:12.300Z,17.00
2022-08-19T05:07:48.290Z,15.70
2022-08-19T05:10:25.057Z,18.30
2022-08-19T05:13:01.595Z,15.50
2022-08-19T05:15:37.946Z,13.40
2022-08-19T05:18:31.852Z,14.70
2022-08-19T05:21:34.049Z,16.50
2022-08-19T05:24:11.563Z,14.20
2022-08-19T05:26:51.706Z,14.90
2022-08-19T05:29:36.430Z,15.90
2022-08-19T05:32:13.619Z,12.90
2022-08-19T05:34:56.184Z,12.90
2022-08-19T05:37:32.271Z,13.80
2022-08-19T05:40:10.748Z,11.90
2022-08-19T05:42:47.222Z,13.30
2022-08-19T05:45:32.063Z,13.90
2022-08-19T05:48:08.763Z,11.40
2022-08-19T05:50:47.797Z,12.70
2022-08-19T05:53:24.200Z,12.90
2022-08-19T05:56:00.156Z,13.40
2022-08-19T05:58:36.362Z,15.20
2022-08-19T06:01:20.137Z,13.60
2022-08-19T06:03:56.389Z,11.70
2022-08-19T06:06:35.094Z,15.30
2022-08-19T06:09:12.717Z,12.90
2022-08-19T06:11:55.998Z,12.30
2022-08-19T06:14:40.149Z,12.80
2022-08-19T06:17:18.041Z,12.10
2022-08-19T06:19:55.094Z,11.70
2022-08-19T06:22:31.945Z,12.40
2022-08-19T06:25:11.259Z,12.40
2022-08-19T06:28:13.502Z,10.90
2022-08-19T06:30:44.070Z,11.80
2022-08-19T06:33:20.023Z,12.00
2022-08-19T06:35:56.186Z,10.80
2022-08-19T06:38:32.066Z,10.60
2022-08-19T06:41:10.556Z,12.50
2022-08-19T06:43:46.515Z,10.50
2022-08-19T06:46:24.008Z,10.20
2022-08-19T06:49:00.135Z,9.10
2022-08-19T06:51:42.830Z,12.20
2022-08-19T06:54:21.710Z,10.40
2022-08-19T06:57:03.106Z,12.00
2022-08-19T06:59:39.164Z,11.70
2022-08-19T07:02:15.769Z,8.90
2022-08-19T07:04:52.502Z,10.90
2022-08-19T07:07:29.459Z,11.20
2022-08-19T07:10:08.254Z,10.40
2022-08-19T07:12:44.393Z,9.20
2022-08-19T07:15:22.364Z,11.00
2022-08-19T07:17:58.361Z,9.40
2022-08-19T07:20:34.857Z,10.90
2022-08-19T07:23:15.769Z,9.00
2022-08-19T07:25:53.225Z,9.90
2022-08-19T07:28:29.450Z,10.30
2022-08-19T07:31:05.656Z,11.20
2022-08-19T07:33:44.123Z,9.80
2022-08-19T07:36:29.664Z,14.00
2022-08-19T07:39:12.043Z,10.20
2022-08-19T07:41:49.455Z,11.00
2022-08-19T07:44:26.492Z,10.20
2022-08-19T07:47:04.964Z,10.30
2022-08-19T07:49:41.814Z,11.10
2022-08-19T07:52:18.793Z,10.80
2022-08-19T07:54:55.188Z,10.10
2022-08-19T07:57:31.309Z,12.30
2022-08-19T08:00:11.199Z,9.80
2022-08-19T08:02:47.950Z,16.80
2022-08-19T08:05:44.386Z,10.30
2022-08-19T08:08:44.108Z,9.60
2022-08-19T08:11:25.278Z,11.30
2022-08-19T08:14:06.432Z,14.30
2022-08-19T08:16:47.261Z,13.30
2022-08-19T08:19:27.841Z,13.00
2022-08-19T08:22:07.493Z,12.00
2022-08-19T08:24:43.391Z,11.50
2022-08-19T08:27:20.926Z,17.00
2022-08-19T08:30:02.961Z,16.00
2022-08-19T08:32:40.727Z,18.80
2022-08-19T08:35:22.836Z,15.10
2022-08-19T08:38:00.181Z,16.60
2022-08-19T08:40:51.622Z,16.90
2022-08-19T08:43:37.370Z,13.20
2022-08-19T08:46:31.719Z,14.30
2022-08-19T08:49:22.641Z,16.70
2022-08-19T08:52:07.395Z,13.30
2022-08-19T08:54:55.069Z,14.50
2022-08-19T08:57:42.588Z,14.20
2022-08-19T09:00:27.811Z,15.40
2022-08-19T09:03:06.572Z,15.90
2022-08-19T09:06:01.462Z,13.10
2022-08-19T09:09:04.768Z,16.60
2022-08-19T09:12:03.159Z,16.40
2022-08-19T09:14:51.595Z,11.80
2022-08-19T09:17:34.639Z,12.70
2022-08-19T09:20:24.227Z,12.60
2022-08-19T09:23:02.859Z,14.00
2022-08-19T09:25:41.126Z,12.20
2022-08-19T09:28:22.558Z,14.00
2022-08-19T09:31:03.954Z,12.50
2022-08-19T09:33:40.415Z,14.30
2022-08-19T09:36:31.253Z,13.50
2022-08-19T09:39:16.067Z,12.20
2022-08-19T09:41:53.959Z,11.90
2022-08-19T09:44:30.041Z,10.10
2022-08-19T09:47:06.796Z,10.80
2022-08-19T09:49:44.855Z,11.10
2022-08-19T09:52:20.956Z,13.00
2022-08-19T09:55:00.294Z,11.90
2022-08-19T09:57:36.576Z,13.10
2022-08-19T10:00:16.114Z,11.90
2022-08-19T10:02:53.214Z,10.20
2022-08-19T10:05:48.702Z,15.00
2022-08-19T10:08:30.615Z,11.10
2022-08-19T10:11:27.818Z,10.60
2022-08-19T10:14:07.720Z,10.00
2022-08-19T10:16:44.621Z,15.90
2022-08-19T10:19:25.445Z,11.80
2022-08-19T10:22:04.565Z,10.10
2022-08-19T10:24:40.534Z,14.10
2022-08-19T10:27:17.998Z,12.90
2022-08-19T10:29:53.907Z,9.70
2022-08-19T10:32:34.448Z,12.70
2022-08-19T10:35:12.484Z,11.30
2022-08-19T10:37:57.657Z,12.30
2022-08-19T10:40:38.305Z,10.20
2022-08-19T10:43:14.288Z,8.90
2022-08-19T10:46:00.220Z,9.80
2022-08-19T10:48:36.763Z,11.60
2022-08-19T10:51:31.970Z,9.50
2022-08-19T10:54:12.528Z,11.50
2022-08-19T10:56:56.234Z,12.30
2022-08-19T10:59:36.196Z,13.30
2022-08-19T11:02:15.070Z,13.50
2022-08-19T11:04:52.800Z,11.00
2022-08-19T11:07:30.540Z,12.50
2022-08-19T11:10:12.953Z,9.40
2022-08-19T11:12:49.530Z,14.10
2022-08-19T11:15:26.144Z,13.70
2022-08-19T11:18:01.985Z,9.90
2022-08-19T11:20:38.088Z,10.20
2022-08-19T11:23:14.001Z,13.90
2022-08-19T11:25:51.756Z,9.10
2022-08-19T11:28:27.892Z,10.20
2022-08-19T11:31:04.544Z,11.80
2022-08-19T11:33:40.771Z,10.50
2022-08-19T11:36:18.393Z,12.10
2022-08-19T11:38:55.542Z,9.90
2022-08-19T11:41:32.419Z,9.40
2022-08-19T11:44:10.288Z,12.50
2022-08-19T11:46:48.570Z,10.30
2022-08-19T11:49:25.694Z,12.40
2022-08-19T11:52:02.340Z,8.70
2022-08-19T11:54:38.627Z,10.90
2022-08-19T11:57:17.825Z,9.10
2022-08-19T11:59:57.364Z,9.10
2022-08-19T12:02:33.911Z,13.10
2022-08-19T12:05:13.091Z,11.10
2022-08-19T12:07:49.571Z,12.50
2022-08-19T12:10:26.702Z,10.30
2022-08-19T12:13:03.498Z,9.70
2022-08-19T12:15:42.953Z,11.00
2022-08-19T12:18:19.132Z,10.60
2022-08-19T12:20:57.790Z,9.40
2022-08-19T12:23:34.071Z,10.40
2022-08-19T12:26:13.123Z,10.30
2022-08-19T12:28:49.721Z,9.60
2022-08-19T12:31:25.757Z,11.00
2022-08-19T12:34:02.592Z,9.50
2022-08-19T12:36:38.930Z,10.70
2022-08-19T12:39:14.975Z,10.50
2022-08-19T12:41:53.989Z,10.90
2022-08-19T12:44:32.040Z,9.90
2022-08-19T12:47:14.751Z,11.90
2022-08-19T12:49:55.570Z,11.70
2022-08-19T12:52:32.895Z,8.30
2022-08-19T12:55:12.567Z,10.70
2022-08-19T12:57:49.623Z,10.60
2022-08-19T13:00:28.104Z,9.70
2022-08-19T13:03:04.873Z,9.40
2022-08-19T13:05:40.898Z,9.60
2022-08-19T13:08:16.884Z,9.40
2022-08-19T13:10:53.183Z,12.30
2022-08-19T13:13:29.330Z,9.50
2022-08-19T13:16:07.814Z,11.60
2022-08-19T13:18:47.493Z,10.30
2022-08-19T13:21:26.499Z,10.90
2022-08-19T13:24:02.943Z,12.80
2022-08-19T13:26:39.306Z,11.10
2022-08-19T13:29:35.249Z,8.40
2022-08-19T13:32:29.680Z,9.10
2022-08-19T13:35:06.746Z,9.70
2022-08-19T13:37:46.536Z,9.50
2022-08-19T13:40:27.342Z,10.50
2022-08-19T13:43:17.796Z,10.20
2022-08-19T13:45:59.982Z,10.70
2022-08-19T13:48:36.077Z,9.80
2022-08-19T13:51:12.855Z,10.30
2022-08-19T13:53:49.807Z,9.50
2022-08-19T13:56:26.729Z,11.70
2022-08-19T13:59:02.713Z,11.90
2022-08-19T14:01:39.012Z,12.80
2022-08-19T14:04:15.270Z,8.80
2022-08-19T14:06:51.270Z,9.30
2022-08-19T14:09:27.471Z,10.50
2022-08-19T14:12:03.542Z,9.30
2022-08-19T14:14:41.699Z,9.60
2022-08-19T14:17:18.253Z,11.00
2022-08-19T14:20:00.327Z,8.90
2022-08-19T14:22:49.456Z,10.10
2022-08-19T14:25:30.261Z,9.90
